sensor_id;sensor_type;location;lat;lon;timestamp;P1;durP1;ratioP1;P2;durP2;ratioP2
4961;SDS011;2496;52.468;13.342;2023-06-14T00:00:03;4.67;;;2.80;;
4961;SDS011;2496;52.468;13.342;2023-06-14T00:02:32;3.67;;;3.30;;
4961;SDS011;2496;52.468;13.342;2023-06-14T00:04:59;5.53;;;3.30;;
4961;SDS011;2496;52.468;13.342;2023-06-14T00:07:35;5.70;;;3.17;;
4961;SDS011;2496;52.468;13.342;2023-06-14T00:10:09;7.73;;;3.60;;
4961;SDS011;2496;52.468;13.342;2023-06-14T00:12:37;3.93;;;2.97;;
4961;SDS011;2496;52.468;13.342;2023-06-14T00:15:05;4.37;;;3.07;;
4961;SDS011;2496;52.468;13.342;2023-06-14T00:17:34;4.73;;;2.90;;
4961;SDS011;2496;52.468;13.342;2023-06-14T00:20:02;5.50;;;2.83;;
4961;SDS011;2496;52.468;13.342;2023-06-14T00:22:33;5.30;;;3.13;;
4961;SDS011;2496;52.468;13.342;2023-06-14T00:25:01;5.50;;;3.10;;
4961;SDS011;2496;52.468;13.342;2023-06-14T00:27:30;4.50;;;3.33;;
4961;SDS011;2496;52.468;13.342;2023-06-14T00:29:57;8.03;;;3.30;;
4961;SDS011;2496;52.468;13.342;2023-06-14T00:32:24;6.90;;;3.50;;
4961;SDS011;2496;52.468;13.342;2023-06-14T00:34:53;8.13;;;3.00;;
4961;SDS011;2496;52.468;13.342;2023-06-14T00:37:20;6.77;;;3.37;;
4961;SDS011;2496;52.468;13.342;2023-06-14T00:39:47;5.20;;;3.10;;
4961;SDS011;2496;52.468;13.342;2023-06-14T00:42:22;4.53;;;3.10;;
4961;SDS011;2496;52.468;13.342;2023-06-14T00:44:51;3.90;;;3.33;;
4961;SDS011;2496;52.468;13.342;2023-06-14T00:47:19;8.63;;;3.30;;
4961;SDS011;2496;52.468;13.342;2023-06-14T00:49:47;4.30;;;3.50;;
4961;SDS011;2496;52.468;13.342;2023-06-14T00:52:16;7.03;;;3.47;;
4961;SDS011;2496;52.468;13.342;2023-06-14T00:54:43;8.90;;;4.37;;
4961;SDS011;2496;52.468;13.342;2023-06-14T00:57:10;5.40;;;4.00;;
4961;SDS011;2496;52.468;13.342;2023-06-14T00:59:40;12.20;;;4.20;;
4961;SDS011;2496;52.468;13.342;2023-06-14T01:02:11;4.33;;;3.80;;
4961;SDS011;2496;52.468;13.342;2023-06-14T01:04:40;5.53;;;4.13;;
4961;SDS011;2496;52.468;13.342;2023-06-14T01:07:11;5.97;;;4.23;;
4961;SDS011;2496;52.468;13.342;2023-06-14T01:09:48;5.03;;;4.20;;
4961;SDS011;2496;52.468;13.342;2023-06-14T01:12:27;6.43;;;4.30;;
4961;SDS011;2496;52.468;13.342;2023-06-14T01:15:04;4.53;;;3.70;;
4961;SDS011;2496;52.468;13.342;2023-06-14T01:17:34;4.97;;;4.30;;
4961;SDS011;2496;52.468;13.342;2023-06-14T01:20:01;7.73;;;4.23;;
4961;SDS011;2496;52.468;13.342;2023-06-14T01:22:34;7.80;;;5.40;;
4961;SDS011;2496;52.468;13.342;2023-06-14T01:25:04;7.47;;;4.23;;
4961;SDS011;2496;52.468;13.342;2023-06-14T01:27:31;7.23;;;3.87;;
4961;SDS011;2496;52.468;13.342;2023-06-14T01:30:03;9.50;;;5.40;;
4961;SDS011;2496;52.468;13.342;2023-06-14T01:32:30;6.57;;;4.10;;
4961;SDS011;2496;52.468;13.342;2023-06-14T01:34:58;6.67;;;4.97;;
4961;SDS011;2496;52.468;13.342;2023-06-14T01:37:25;6.07;;;5.17;;
4961;SDS011;2496;52.468;13.342;2023-06-14T01:39:52;6.97;;;4.90;;
4961;SDS011;2496;52.468;13.342;2023-06-14T01:42:24;10.83;;;5.67;;
4961;SDS011;2496;52.468;13.342;2023-06-14T01:44:52;5.93;;;4.00;;
4961;SDS011;2496;52.468;13.342;2023-06-14T01:47:21;8.23;;;4.50;;
4961;SDS011;2496;52.468;13.342;2023-06-14T01:49:48;5.40;;;4.20;;
4961;SDS011;2496;52.468;13.342;2023-06-14T01:52:15;12.80;;;4.87;;
4961;SDS011;2496;52.468;13.342;2023-06-14T01:54:43;6.43;;;4.77;;
4961;SDS011;2496;52.468;13.342;2023-06-14T01:57:10;7.27;;;5.10;;
4961;SDS011;2496;52.468;13.342;2023-06-14T01:59:39;7.60;;;5.20;;
4961;SDS011;2496;52.468;13.342;2023-06-14T02:02:06;5.40;;;4.90;;
4961;SDS011;2496;52.468;13.342;2023-06-14T02:04:33;15.00;;;5.80;;
4961;SDS011;2496;52.468;13.342;2023-06-14T02:07:00;9.07;;;5.40;;
4961;SDS011;2496;52.468;13.342;2023-06-14T02:09:27;6.93;;;4.70;;
4961;SDS011;2496;52.468;13.342;2023-06-14T02:11:54;8.93;;;5.87;;
4961;SDS011;2496;52.468;13.342;2023-06-14T02:14:21;6.20;;;4.60;;
4961;SDS011;2496;52.468;13.342;2023-06-14T02:16:51;7.30;;;5.47;;
4961;SDS011;2496;52.468;13.342;2023-06-14T02:19:18;8.07;;;4.90;;
4961;SDS011;2496;52.468;13.342;2023-06-14T02:21:46;7.63;;;5.30;;
4961;SDS011;2496;52.468;13.342;2023-06-14T02:24:13;7.00;;;5.00;;
4961;SDS011;2496;52.468;13.342;2023-06-14T02:26:41;6.30;;;4.97;;
4961;SDS011;2496;52.468;13.342;2023-06-14T02:29:08;6.63;;;5.20;;
4961;SDS011;2496;52.468;13.342;2023-06-14T02:31:37;7.00;;;5.00;;
4961;SDS011;2496;52.468;13.342;2023-06-14T02:34:06;7.07;;;5.27;;
4961;SDS011;2496;52.468;13.342;2023-06-14T02:36:34;7.90;;;5.60;;
4961;SDS011;2496;52.468;13.342;2023-06-14T02:39:10;6.20;;;5.23;;
4961;SDS011;2496;52.468;13.342;2023-06-14T02:41:37;10.60;;;5.70;;
4961;SDS011;2496;52.468;13.342;2023-06-14T02:44:04;10.40;;;5.33;;
4961;SDS011;2496;52.468;13.342;2023-06-14T02:46:32;7.10;;;5.10;;
4961;SDS011;2496;52.468;13.342;2023-06-14T02:48:59;12.67;;;5.87;;
4961;SDS011;2496;52.468;13.342;2023-06-14T02:51:27;6.97;;;4.90;;
4961;SDS011;2496;52.468;13.342;2023-06-14T02:53:54;10.80;;;5.93;;
4961;SDS011;2496;52.468;13.342;2023-06-14T02:56:21;7.25;;;5.53;;
4961;SDS011;2496;52.468;13.342;2023-06-14T02:58:48;6.57;;;5.23;;
4961;SDS011;2496;52.468;13.342;2023-06-14T03:01:16;7.83;;;5.73;;
4961;SDS011;2496;52.468;13.342;2023-06-14T03:03:43;7.67;;;5.43;;
4961;SDS011;2496;52.468;13.342;2023-06-14T03:06:10;9.30;;;5.60;;
4961;SDS011;2496;52.468;13.342;2023-06-14T03:08:40;8.73;;;5.37;;
4961;SDS011;2496;52.468;13.342;2023-06-14T03:11:07;8.33;;;6.40;;
4961;SDS011;2496;52.468;13.342;2023-06-14T03:13:34;7.67;;;6.00;;
4961;SDS011;2496;52.468;13.342;2023-06-14T03:16:02;12.87;;;5.90;;
4961;SDS011;2496;52.468;13.342;2023-06-14T03:18:29;10.10;;;4.97;;
4961;SDS011;2496;52.468;13.342;2023-06-14T03:21:00;8.63;;;6.30;;
4961;SDS011;2496;52.468;13.342;2023-06-14T03:23:27;9.87;;;5.63;;
4961;SDS011;2496;52.468;13.342;2023-06-14T03:25:56;10.73;;;6.63;;
4961;SDS011;2496;52.468;13.342;2023-06-14T03:28:23;7.37;;;5.37;;
4961;SDS011;2496;52.468;13.342;2023-06-14T03:30:50;8.23;;;5.87;;
4961;SDS011;2496;52.468;13.342;2023-06-14T03:33:17;7.00;;;6.13;;
4961;SDS011;2496;52.468;13.342;2023-06-14T03:35:46;7.53;;;5.90;;
4961;SDS011;2496;52.468;13.342;2023-06-14T03:38:13;11.00;;;5.90;;
4961;SDS011;2496;52.468;13.342;2023-06-14T03:40:40;8.73;;;5.83;;
4961;SDS011;2496;52.468;13.342;2023-06-14T03:43:08;8.70;;;6.37;;
4961;SDS011;2496;52.468;13.342;2023-06-14T03:45:35;9.57;;;6.37;;
4961;SDS011;2496;52.468;13.342;2023-06-14T03:48:02;8.23;;;5.80;;
4961;SDS011;2496;52.468;13.342;2023-06-14T03:50:31;10.00;;;6.10;;
4961;SDS011;2496;52.468;13.342;2023-06-14T03:52:58;9.73;;;6.47;;
4961;SDS011;2496;52.468;13.342;2023-06-14T03:55:26;18.13;;;7.10;;
4961;SDS011;2496;52.468;13.342;2023-06-14T03:57:56;10.40;;;5.60;;
4961;SDS011;2496;52.468;13.342;2023-06-14T04:00:24;9.77;;;5.93;;
4961;SDS011;2496;52.468;13.342;2023-06-14T04:02:52;7.97;;;6.57;;
4961;SDS011;2496;52.468;13.342;2023-06-14T04:05:19;10.07;;;6.10;;
4961;SDS011;2496;52.468;13.342;2023-06-14T04:07:46;9.70;;;6.90;;
4961;SDS011;2496;52.468;13.342;2023-06-14T04:10:14;10.63;;;6.80;;
4961;SDS011;2496;52.468;13.342;2023-06-14T04:12:42;7.50;;;6.00;;
4961;SDS011;2496;52.468;13.342;2023-06-14T04:15:12;10.30;;;6.30;;
4961;SDS011;2496;52.468;13.342;2023-06-14T04:17:41;12.50;;;7.40;;
4961;SDS011;2496;52.468;13.342;2023-06-14T04:20:08;14.00;;;6.63;;
4961;SDS011;2496;52.468;13.342;2023-06-14T04:22:36;9.33;;;6.40;;
4961;SDS011;2496;52.468;13.342;2023-06-14T04:25:03;8.27;;;7.43;;
4961;SDS011;2496;52.468;13.342;2023-06-14T04:27:31;10.50;;;7.03;;
4961;SDS011;2496;52.468;13.342;2023-06-14T04:30:01;9.80;;;6.70;;
4961;SDS011;2496;52.468;13.342;2023-06-14T04:32:28;12.20;;;6.70;;
4961;SDS011;2496;52.468;13.342;2023-06-14T04:35:00;9.77;;;7.23;;
4961;SDS011;2496;52.468;13.342;2023-06-14T04:37:28;9.10;;;7.03;;
4961;SDS011;2496;52.468;13.342;2023-06-14T04:39:55;12.67;;;7.47;;
4961;SDS011;2496;52.468;13.342;2023-06-14T04:42:23;7.80;;;6.63;;
4961;SDS011;2496;52.468;13.342;2023-06-14T04:44:56;11.40;;;6.70;;
4961;SDS011;2496;52.468;13.342;2023-06-14T04:47:23;9.63;;;7.37;;
4961;SDS011;2496;52.468;13.342;2023-06-14T04:49:55;9.40;;;7.20;;
4961;SDS011;2496;52.468;13.342;2023-06-14T04:52:24;7.60;;;6.37;;
4961;SDS011;2496;52.468;13.342;2023-06-14T04:54:51;7.97;;;6.90;;
4961;SDS011;2496;52.468;13.342;2023-06-14T04:57:19;9.23;;;7.50;;
4961;SDS011;2496;52.468;13.342;2023-06-14T04:59:47;7.80;;;7.00;;
4961;SDS011;2496;52.468;13.342;2023-06-14T05:02:20;11.67;;;7.97;;
4961;SDS011;2496;52.468;13.342;2023-06-14T05:04:48;8.20;;;7.27;;
4961;SDS011;2496;52.468;13.342;2023-06-14T05:07:16;13.60;;;7.17;;
4961;SDS011;2496;52.468;13.342;2023-06-14T05:09:44;9.13;;;6.87;;
4961;SDS011;2496;52.468;13.342;2023-06-14T05:12:12;11.70;;;6.63;;
4961;SDS011;2496;52.468;13.342;2023-06-14T05:14:42;9.60;;;7.30;;
4961;SDS011;2496;52.468;13.342;2023-06-14T05:17:09;7.10;;;6.40;;
4961;SDS011;2496;52.468;13.342;2023-06-14T05:19:36;8.43;;;6.80;;
4961;SDS011;2496;52.468;13.342;2023-06-14T05:22:03;9.83;;;6.97;;
4961;SDS011;2496;52.468;13.342;2023-06-14T05:24:30;9.73;;;7.25;;
4961;SDS011;2496;52.468;13.342;2023-06-14T05:26:59;10.20;;;6.90;;
4961;SDS011;2496;52.468;13.342;2023-06-14T05:29:26;9.80;;;7.13;;
4961;SDS011;2496;52.468;13.342;2023-06-14T05:31:53;12.70;;;7.83;;
4961;SDS011;2496;52.468;13.342;2023-06-14T05:34:20;7.70;;;6.13;;
4961;SDS011;2496;52.468;13.342;2023-06-14T05:36:47;8.17;;;5.93;;
4961;SDS011;2496;52.468;13.342;2023-06-14T05:39:14;16.07;;;7.37;;
4961;SDS011;2496;52.468;13.342;2023-06-14T05:41:42;8.40;;;6.10;;
4961;SDS011;2496;52.468;13.342;2023-06-14T05:44:10;8.80;;;5.73;;
4961;SDS011;2496;52.468;13.342;2023-06-14T05:46:37;10.47;;;6.80;;
4961;SDS011;2496;52.468;13.342;2023-06-14T05:49:05;10.33;;;6.07;;
4961;SDS011;2496;52.468;13.342;2023-06-14T05:51:32;16.03;;;6.23;;
4961;SDS011;2496;52.468;13.342;2023-06-14T05:53:59;11.83;;;7.00;;
4961;SDS011;2496;52.468;13.342;2023-06-14T05:56:26;11.00;;;6.30;;
4961;SDS011;2496;52.468;13.342;2023-06-14T05:58:53;9.90;;;7.03;;
4961;SDS011;2496;52.468;13.342;2023-06-14T06:01:22;10.60;;;7.20;;
4961;SDS011;2496;52.468;13.342;2023-06-14T06:03:49;14.47;;;7.27;;
4961;SDS011;2496;52.468;13.342;2023-06-14T06:06:16;11.80;;;7.43;;
4961;SDS011;2496;52.468;13.342;2023-06-14T06:08:43;8.67;;;7.23;;
4961;SDS011;2496;52.468;13.342;2023-06-14T06:11:10;11.80;;;6.97;;
4961;SDS011;2496;52.468;13.342;2023-06-14T06:13:37;12.90;;;6.80;;
4961;SDS011;2496;52.468;13.342;2023-06-14T06:16:05;12.67;;;6.83;;
4961;SDS011;2496;52.468;13.342;2023-06-14T06:18:34;9.93;;;6.90;;
4961;SDS011;2496;52.468;13.342;2023-06-14T06:21:01;12.83;;;7.50;;
4961;SDS011;2496;52.468;13.342;2023-06-14T06:23:29;11.20;;;7.77;;
4961;SDS011;2496;52.468;13.342;2023-06-14T06:25:56;9.90;;;7.40;;
4961;SDS011;2496;52.468;13.342;2023-06-14T06:28:23;13.93;;;7.87;;
4961;SDS011;2496;52.468;13.342;2023-06-14T06:30:50;17.40;;;8.03;;
4961;SDS011;2496;52.468;13.342;2023-06-14T06:33:18;9.53;;;7.90;;
4961;SDS011;2496;52.468;13.342;2023-06-14T06:35:46;10.20;;;6.90;;
4961;SDS011;2496;52.468;13.342;2023-06-14T06:38:13;11.40;;;7.67;;
4961;SDS011;2496;52.468;13.342;2023-06-14T06:40:40;19.63;;;7.43;;
4961;SDS011;2496;52.468;13.342;2023-06-14T06:43:07;13.00;;;7.57;;
4961;SDS011;2496;52.468;13.342;2023-06-14T06:45:34;13.13;;;7.40;;
4961;SDS011;2496;52.468;13.342;2023-06-14T06:48:01;13.80;;;8.07;;
4961;SDS011;2496;52.468;13.342;2023-06-14T06:50:29;9.03;;;7.00;;
4961;SDS011;2496;52.468;13.342;2023-06-14T06:52:57;14.37;;;7.80;;
4961;SDS011;2496;52.468;13.342;2023-06-14T06:55:24;11.30;;;7.10;;
4961;SDS011;2496;52.468;13.342;2023-06-14T06:57:51;8.37;;;6.77;;
4961;SDS011;2496;52.468;13.342;2023-06-14T07:00:19;10.80;;;6.37;;
4961;SDS011;2496;52.468;13.342;2023-06-14T07:02:46;13.13;;;7.13;;
4961;SDS011;2496;52.468;13.342;2023-06-14T07:05:13;9.43;;;6.73;;
4961;SDS011;2496;52.468;13.342;2023-06-14T07:07:41;8.83;;;6.67;;
4961;SDS011;2496;52.468;13.342;2023-06-14T07:10:09;12.67;;;7.17;;
4961;SDS011;2496;52.468;13.342;2023-06-14T07:12:36;13.60;;;6.97;;
4961;SDS011;2496;52.468;13.342;2023-06-14T07:15:05;11.47;;;7.53;;
4961;SDS011;2496;52.468;13.342;2023-06-14T07:17:33;12.93;;;6.43;;
4961;SDS011;2496;52.468;13.342;2023-06-14T07:20:01;12.83;;;7.23;;
4961;SDS011;2496;52.468;13.342;2023-06-14T07:22:37;10.10;;;7.20;;
4961;SDS011;2496;52.468;13.342;2023-06-14T07:25:06;8.40;;;5.50;;
4961;SDS011;2496;52.468;13.342;2023-06-14T07:27:35;16.17;;;7.17;;
4961;SDS011;2496;52.468;13.342;2023-06-14T07:30:02;16.30;;;6.53;;
4961;SDS011;2496;52.468;13.342;2023-06-14T07:32:29;7.67;;;6.87;;
4961;SDS011;2496;52.468;13.342;2023-06-14T07:34:56;18.43;;;7.00;;
4961;SDS011;2496;52.468;13.342;2023-06-14T07:37:23;15.23;;;7.07;;
4961;SDS011;2496;52.468;13.342;2023-06-14T07:39:50;7.83;;;6.27;;
4961;SDS011;2496;52.468;13.342;2023-06-14T07:42:17;12.73;;;6.57;;
4961;SDS011;2496;52.468;13.342;2023-06-14T07:44:45;10.90;;;5.47;;
4961;SDS011;2496;52.468;13.342;2023-06-14T07:47:12;10.40;;;6.60;;
4961;SDS011;2496;52.468;13.342;2023-06-14T07:49:39;11.33;;;6.97;;
4961;SDS011;2496;52.468;13.342;2023-06-14T07:52:07;10.63;;;6.37;;
4961;SDS011;2496;52.468;13.342;2023-06-14T07:54:34;17.80;;;6.50;;
4961;SDS011;2496;52.468;13.342;2023-06-14T07:57:01;11.17;;;5.27;;
4961;SDS011;2496;52.468;13.342;2023-06-14T07:59:28;10.27;;;5.37;;
4961;SDS011;2496;52.468;13.342;2023-06-14T08:01:56;7.30;;;5.77;;
4961;SDS011;2496;52.468;13.342;2023-06-14T08:04:23;9.53;;;5.70;;
4961;SDS011;2496;52.468;13.342;2023-06-14T08:06:50;12.30;;;5.93;;
4961;SDS011;2496;52.468;13.342;2023-06-14T08:09:17;8.17;;;5.43;;
4961;SDS011;2496;52.468;13.342;2023-06-14T08:11:45;10.93;;;5.70;;
4961;SDS011;2496;52.468;13.342;2023-06-14T08:14:12;11.00;;;5.80;;
4961;SDS011;2496;52.468;13.342;2023-06-14T08:16:39;7.80;;;5.07;;
4961;SDS011;2496;52.468;13.342;2023-06-14T08:19:07;8.90;;;5.63;;
4961;SDS011;2496;52.468;13.342;2023-06-14T08:21:35;8.87;;;4.87;;
4961;SDS011;2496;52.468;13.342;2023-06-14T08:24:02;8.20;;;5.90;;
4961;SDS011;2496;52.468;13.342;2023-06-14T08:26:30;5.40;;;4.90;;
4961;SDS011;2496;52.468;13.342;2023-06-14T08:28:57;7.27;;;4.97;;
4961;SDS011;2496;52.468;13.342;2023-06-14T08:31:24;7.33;;;4.63;;
4961;SDS011;2496;52.468;13.342;2023-06-14T08:33:52;9.20;;;5.63;;
4961;SDS011;2496;52.468;13.342;2023-06-14T08:36:21;7.63;;;5.00;;
4961;SDS011;2496;52.468;13.342;2023-06-14T08:38:48;9.00;;;4.17;;
4961;SDS011;2496;52.468;13.342;2023-06-14T08:41:19;11.57;;;5.03;;
4961;SDS011;2496;52.468;13.342;2023-06-14T08:43:48;6.40;;;4.70;;
4961;SDS011;2496;52.468;13.342;2023-06-14T08:46:17;20.03;;;5.40;;
4961;SDS011;2496;52.468;13.342;2023-06-14T08:48:46;5.93;;;4.60;;
4961;SDS011;2496;52.468;13.342;2023-06-14T08:51:15;7.90;;;4.57;;
4961;SDS011;2496;52.468;13.342;2023-06-14T08:53:49;13.33;;;4.60;;
4961;SDS011;2496;52.468;13.342;2023-06-14T08:56:22;10.33;;;3.50;;
4961;SDS011;2496;52.468;13.342;2023-06-14T08:58:51;7.23;;;4.23;;
4961;SDS011;2496;52.468;13.342;2023-06-14T09:01:18;7.73;;;4.17;;
4961;SDS011;2496;52.468;13.342;2023-06-14T09:03:46;5.97;;;3.83;;
4961;SDS011;2496;52.468;13.342;2023-06-14T09:06:15;6.17;;;4.10;;
4961;SDS011;2496;52.468;13.342;2023-06-14T09:08:44;9.17;;;4.23;;
4961;SDS011;2496;52.468;13.342;2023-06-14T09:11:14;6.33;;;4.37;;
4961;SDS011;2496;52.468;13.342;2023-06-14T09:13:44;6.47;;;4.10;;
4961;SDS011;2496;52.468;13.342;2023-06-14T09:16:11;9.17;;;4.73;;
4961;SDS011;2496;52.468;13.342;2023-06-14T09:18:39;5.90;;;4.57;;
4961;SDS011;2496;52.468;13.342;2023-06-14T09:21:09;6.43;;;4.70;;
4961;SDS011;2496;52.468;13.342;2023-06-14T09:23:37;8.57;;;4.57;;
4961;SDS011;2496;52.468;13.342;2023-06-14T09:26:06;7.13;;;5.00;;
4961;SDS011;2496;52.468;13.342;2023-06-14T09:28:35;7.90;;;5.00;;
4961;SDS011;2496;52.468;13.342;2023-06-14T09:31:03;6.80;;;5.00;;
4961;SDS011;2496;52.468;13.342;2023-06-14T09:33:30;8.33;;;5.07;;
4961;SDS011;2496;52.468;13.342;2023-06-14T09:35:58;7.87;;;4.50;;
4961;SDS011;2496;52.468;13.342;2023-06-14T09:38:25;22.57;;;4.90;;
4961;SDS011;2496;52.468;13.342;2023-06-14T09:40:52;4.93;;;4.43;;
4961;SDS011;2496;52.468;13.342;2023-06-14T09:43:22;6.93;;;4.33;;
4961;SDS011;2496;52.468;13.342;2023-06-14T09:45:53;9.70;;;4.20;;
4961;SDS011;2496;52.468;13.342;2023-06-14T09:48:21;8.43;;;4.50;;
4961;SDS011;2496;52.468;13.342;2023-06-14T09:50:48;10.73;;;3.80;;
4961;SDS011;2496;52.468;13.342;2023-06-14T09:53:17;6.80;;;4.70;;
4961;SDS011;2496;52.468;13.342;2023-06-14T09:55:49;9.77;;;4.33;;
4961;SDS011;2496;52.468;13.342;2023-06-14T09:58:18;8.30;;;4.27;;
4961;SDS011;2496;52.468;13.342;2023-06-14T10:00:49;5.73;;;4.50;;
4961;SDS011;2496;52.468;13.342;2023-06-14T10:03:20;9.43;;;4.20;;
4961;SDS011;2496;52.468;13.342;2023-06-14T10:05:51;8.83;;;4.77;;
4961;SDS011;2496;52.468;13.342;2023-06-14T10:08:22;8.80;;;4.90;;
4961;SDS011;2496;52.468;13.342;2023-06-14T10:10:52;16.67;;;4.90;;
4961;SDS011;2496;52.468;13.342;2023-06-14T10:13:21;8.70;;;4.37;;
4961;SDS011;2496;52.468;13.342;2023-06-14T10:15:52;7.53;;;4.43;;
4961;SDS011;2496;52.468;13.342;2023-06-14T10:18:27;12.63;;;5.20;;
4961;SDS011;2496;52.468;13.342;2023-06-14T10:21:02;6.27;;;4.70;;
4961;SDS011;2496;52.468;13.342;2023-06-14T10:23:35;8.33;;;4.67;;
4961;SDS011;2496;52.468;13.342;2023-06-14T10:26:06;7.50;;;4.10;;
4961;SDS011;2496;52.468;13.342;2023-06-14T10:28:34;12.70;;;4.45;;
4961;SDS011;2496;52.468;13.342;2023-06-14T10:31:08;8.00;;;4.70;;
4961;SDS011;2496;52.468;13.342;2023-06-14T10:33:39;11.00;;;4.47;;
4961;SDS011;2496;52.468;13.342;2023-06-14T10:36:27;10.30;;;4.67;;
4961;SDS011;2496;52.468;13.342;2023-06-14T10:39:04;6.37;;;4.40;;
4961;SDS011;2496;52.468;13.342;2023-06-14T10:41:34;6.87;;;4.43;;
4961;SDS011;2496;52.468;13.342;2023-06-14T10:47:29;6.80;;;3.90;;
4961;SDS011;2496;52.468;13.342;2023-06-14T10:50:03;6.07;;;4.43;;
4961;SDS011;2496;52.468;13.342;2023-06-14T10:52:37;11.50;;;4.50;;
4961;SDS011;2496;52.468;13.342;2023-06-14T10:55:07;8.07;;;4.80;;
4961;SDS011;2496;52.468;13.342;2023-06-14T10:57:36;12.13;;;4.17;;
4961;SDS011;2496;52.468;13.342;2023-06-14T11:00:05;5.90;;;4.37;;
4961;SDS011;2496;52.468;13.342;2023-06-14T11:05:55;11.17;;;4.13;;
4961;SDS011;2496;52.468;13.342;2023-06-14T11:08:38;9.93;;;4.90;;
4961;SDS011;2496;52.468;13.342;2023-06-14T11:11:17;8.87;;;4.67;;
4961;SDS011;2496;52.468;13.342;2023-06-14T11:13:47;7.93;;;4.50;;
4961;SDS011;2496;52.468;13.342;2023-06-14T11:16:15;5.40;;;3.87;;
4961;SDS011;2496;52.468;13.342;2023-06-14T11:18:44;8.90;;;4.37;;
4961;SDS011;2496;52.468;13.342;2023-06-14T11:21:14;9.60;;;4.20;;
4961;SDS011;2496;52.468;13.342;2023-06-14T11:23:42;6.20;;;4.30;;
4961;SDS011;2496;52.468;13.342;2023-06-14T11:26:14;8.00;;;3.97;;
4961;SDS011;2496;52.468;13.342;2023-06-14T11:28:41;13.20;;;4.57;;
4961;SDS011;2496;52.468;13.342;2023-06-14T11:31:09;15.93;;;5.83;;
4961;SDS011;2496;52.468;13.342;2023-06-14T11:33:36;14.63;;;4.73;;
4961;SDS011;2496;52.468;13.342;2023-06-14T11:36:03;7.63;;;4.43;;
4961;SDS011;2496;52.468;13.342;2023-06-14T11:38:36;8.10;;;4.03;;
4961;SDS011;2496;52.468;13.342;2023-06-14T11:41:03;15.10;;;5.03;;
4961;SDS011;2496;52.468;13.342;2023-06-14T11:43:30;11.17;;;4.60;;
4961;SDS011;2496;52.468;13.342;2023-06-14T11:45:59;11.73;;;4.80;;
4961;SDS011;2496;52.468;13.342;2023-06-14T11:48:35;7.40;;;4.47;;
4961;SDS011;2496;52.468;13.342;2023-06-14T11:51:03;14.80;;;4.70;;
4961;SDS011;2496;52.468;13.342;2023-06-14T11:53:30;9.37;;;4.40;;
4961;SDS011;2496;52.468;13.342;2023-06-14T11:55:58;9.27;;;4.10;;
4961;SDS011;2496;52.468;13.342;2023-06-14T11:58:26;9.50;;;4.70;;
4961;SDS011;2496;52.468;13.342;2023-06-14T12:00:53;6.67;;;3.93;;
4961;SDS011;2496;52.468;13.342;2023-06-14T12:03:23;4.73;;;3.60;;
4961;SDS011;2496;52.468;13.342;2023-06-14T12:06:01;5.00;;;4.20;;
4961;SDS011;2496;52.468;13.342;2023-06-14T12:08:32;8.10;;;4.40;;
4961;SDS011;2496;52.468;13.342;2023-06-14T12:11:05;10.23;;;4.30;;
4961;SDS011;2496;52.468;13.342;2023-06-14T12:13:33;6.10;;;4.23;;
4961;SDS011;2496;52.468;13.342;2023-06-14T12:16:01;8.00;;;4.60;;
4961;SDS011;2496;52.468;13.342;2023-06-14T12:18:33;7.20;;;4.20;;
4961;SDS011;2496;52.468;13.342;2023-06-14T12:21:01;10.20;;;4.40;;
4961;SDS011;2496;52.468;13.342;2023-06-14T12:23:40;7.17;;;4.33;;
4961;SDS011;2496;52.468;13.342;2023-06-14T12:26:11;8.70;;;5.20;;
4961;SDS011;2496;52.468;13.342;2023-06-14T12:28:39;10.23;;;4.83;;
4961;SDS011;2496;52.468;13.342;2023-06-14T12:31:07;11.20;;;4.40;;
4961;SDS011;2496;52.468;13.342;2023-06-14T12:33:34;7.97;;;4.80;;
4961;SDS011;2496;52.468;13.342;2023-06-14T12:36:02;7.40;;;3.53;;
4961;SDS011;2496;52.468;13.342;2023-06-14T12:38:30;8.40;;;4.00;;
4961;SDS011;2496;52.468;13.342;2023-06-14T12:40:57;8.00;;;4.03;;
4961;SDS011;2496;52.468;13.342;2023-06-14T12:43:25;9.50;;;4.53;;
4961;SDS011;2496;52.468;13.342;2023-06-14T12:45:52;6.80;;;3.50;;
4961;SDS011;2496;52.468;13.342;2023-06-14T12:48:20;8.63;;;4.00;;
4961;SDS011;2496;52.468;13.342;2023-06-14T12:50:47;9.40;;;4.37;;
4961;SDS011;2496;52.468;13.342;2023-06-14T12:53:14;15.03;;;4.67;;
4961;SDS011;2496;52.468;13.342;2023-06-14T12:55:42;6.50;;;3.97;;
4961;SDS011;2496;52.468;13.342;2023-06-14T12:58:09;10.10;;;4.70;;
4961;SDS011;2496;52.468;13.342;2023-06-14T13:00:39;8.07;;;4.20;;
4961;SDS011;2496;52.468;13.342;2023-06-14T13:03:06;4.30;;;3.90;;
4961;SDS011;2496;52.468;13.342;2023-06-14T13:05:33;6.97;;;4.07;;
4961;SDS011;2496;52.468;13.342;2023-06-14T13:08:00;7.00;;;4.03;;
4961;SDS011;2496;52.468;13.342;2023-06-14T13:10:27;14.30;;;4.30;;
4961;SDS011;2496;52.468;13.342;2023-06-14T13:12:54;13.03;;;4.27;;
4961;SDS011;2496;52.468;13.342;2023-06-14T13:15:23;8.60;;;3.70;;
4961;SDS011;2496;52.468;13.342;2023-06-14T13:17:51;9.87;;;4.50;;
4961;SDS011;2496;52.468;13.342;2023-06-14T13:20:18;5.20;;;3.90;;
4961;SDS011;2496;52.468;13.342;2023-06-14T13:22:45;9.70;;;4.23;;
4961;SDS011;2496;52.468;13.342;2023-06-14T13:25:13;12.90;;;7.00;;
4961;SDS011;2496;52.468;13.342;2023-06-14T13:27:40;8.07;;;4.33;;
4961;SDS011;2496;52.468;13.342;2023-06-14T13:30:07;8.67;;;4.40;;
4961;SDS011;2496;52.468;13.342;2023-06-14T13:32:35;11.90;;;4.33;;
4961;SDS011;2496;52.468;13.342;2023-06-14T13:35:04;10.87;;;4.07;;
4961;SDS011;2496;52.468;13.342;2023-06-14T13:37:31;12.13;;;3.90;;
4961;SDS011;2496;52.468;13.342;2023-06-14T13:39:58;6.57;;;4.40;;
4961;SDS011;2496;52.468;13.342;2023-06-14T13:42:25;14.00;;;4.23;;
4961;SDS011;2496;52.468;13.342;2023-06-14T13:44:56;11.33;;;3.80;;
4961;SDS011;2496;52.468;13.342;2023-06-14T13:47:23;6.03;;;3.90;;
4961;SDS011;2496;52.468;13.342;2023-06-14T13:49:50;6.77;;;4.40;;
4961;SDS011;2496;52.468;13.342;2023-06-14T13:52:18;9.17;;;4.50;;
4961;SDS011;2496;52.468;13.342;2023-06-14T13:54:45;6.90;;;4.57;;
4961;SDS011;2496;52.468;13.342;2023-06-14T13:57:12;5.00;;;4.50;;
4961;SDS011;2496;52.468;13.342;2023-06-14T13:59:40;9.17;;;4.03;;
4961;SDS011;2496;52.468;13.342;2023-06-14T14:02:09;7.40;;;4.43;;
4961;SDS011;2496;52.468;13.342;2023-06-14T14:04:36;5.20;;;3.63;;
4961;SDS011;2496;52.468;13.342;2023-06-14T14:07:04;9.90;;;4.90;;
4961;SDS011;2496;52.468;13.342;2023-06-14T14:09:33;7.40;;;4.07;;
4961;SDS011;2496;52.468;13.342;2023-06-14T14:12:02;5.27;;;3.97;;
4961;SDS011;2496;52.468;13.342;2023-06-14T14:14:30;10.33;;;4.00;;
4961;SDS011;2496;52.468;13.342;2023-06-14T14:16:58;13.50;;;4.63;;
4961;SDS011;2496;52.468;13.342;2023-06-14T14:19:25;8.10;;;4.67;;
4961;SDS011;2496;52.468;13.342;2023-06-14T14:21:52;7.40;;;4.40;;
4961;SDS011;2496;52.468;13.342;2023-06-14T14:24:19;6.00;;;4.40;;
4961;SDS011;2496;52.468;13.342;2023-06-14T14:26:48;9.03;;;4.50;;
4961;SDS011;2496;52.468;13.342;2023-06-14T14:29:15;8.63;;;4.40;;
4961;SDS011;2496;52.468;13.342;2023-06-14T14:31:43;7.93;;;4.37;;
4961;SDS011;2496;52.468;13.342;2023-06-14T14:34:10;10.03;;;3.93;;
4961;SDS011;2496;52.468;13.342;2023-06-14T14:36:36;14.77;;;4.17;;
4961;SDS011;2496;52.468;13.342;2023-06-14T14:39:07;4.90;;;4.00;;
4961;SDS011;2496;52.468;13.342;2023-06-14T14:41:34;7.70;;;3.87;;
4961;SDS011;2496;52.468;13.342;2023-06-14T14:44:04;8.60;;;4.60;;
4961;SDS011;2496;52.468;13.342;2023-06-14T14:46:31;13.63;;;4.87;;
4961;SDS011;2496;52.468;13.342;2023-06-14T14:48:58;10.60;;;4.50;;
4961;SDS011;2496;52.468;13.342;2023-06-14T14:51:26;11.70;;;4.70;;
4961;SDS011;2496;52.468;13.342;2023-06-14T14:53:53;10.00;;;4.67;;
4961;SDS011;2496;52.468;13.342;2023-06-14T14:56:20;8.70;;;5.10;;
4961;SDS011;2496;52.468;13.342;2023-06-14T14:58:48;5.90;;;3.90;;
4961;SDS011;2496;52.468;13.342;2023-06-14T15:01:17;4.93;;;4.20;;
4961;SDS011;2496;52.468;13.342;2023-06-14T15:03:44;7.60;;;4.67;;
4961;SDS011;2496;52.468;13.342;2023-06-14T15:06:11;14.00;;;4.20;;
4961;SDS011;2496;52.468;13.342;2023-06-14T15:08:38;6.07;;;4.27;;
4961;SDS011;2496;52.468;13.342;2023-06-14T15:11:05;6.70;;;4.00;;